Time;durP1;ratioP1;P1;durP2;ratioP2;P2;SDS_P1;SDS_P2;PMS_P1;PMS_P2;Temp;Humidity;BMP_temperature;BMP_pressure;BME280_temperature;BME280_humidity;BME280_pressure;Samples;Min_cycle;Max_cycle;Signal;HPM_P1;HPM_P2
2023/09/27 00:01:05;;;;;;;;;8.67;8.67;;;;;20.19;60.52;101455.88;4940401;28;45526;-70
2023/09/27 00:03:30;;;;;;;;;9.67;8.00;;;;;20.20;60.46;101467.50;4947216;28;46798;-69
2023/09/27 00:05:56;;;;;;;;;12.33;12.00;;;;;20.19;60.34;101471.25;4955307;28;54780;-69
2023/09/27 00:08:21;;;;;;;;;12.67;10.67;;;;;19.89;60.35;101427.28;4942616;28;45465;-70
2023/09/27 00:10:47;;;;;;;;;11.33;8.33;;;;;20.17;60.53;101479.53;4946580;28;45540;-69
2023/09/27 00:13:12;;;;;;;;;10.67;9.00;;;;;20.16;60.42;101461.66;4947563;28;47569;-69
2023/09/27 00:15:37;;;;;;;;;12.00;12.00;;;;;20.08;60.79;101450.97;4947983;28;45436;-69
2023/09/27 00:18:04;;;;;;;;;10.00;9.00;;;;;20.01;60.53;101442.78;4953699;28;45536;-70
2023/09/27 00:20:30;;;;;;;;;13.00;11.33;;;;;20.16;60.65;101471.63;4941476;28;45347;-70
2023/09/27 00:22:55;;;;;;;;;13.33;9.33;;;;;20.14;60.96;101469.13;4947439;28;46133;-69
2023/09/27 00:25:21;;;;;;;;;12.00;12.00;;;;;20.14;61.03;101461.00;4947635;28;45450;-74
2023/09/27 00:27:46;;;;;;;;;13.00;10.33;;;;;20.12;60.57;101464.94;4943041;28;45435;-68
2023/09/27 00:30:15;;;;;;;;;8.33;8.33;;;;;20.10;60.47;101462.44;4945096;28;45244;-70
2023/09/27 00:32:41;;;;;;;;;11.33;9.67;;;;;19.99;61.09;101442.13;4948433;28;45595;-70
2023/09/27 00:35:12;;;;;;;;;9.67;8.67;;;;;20.03;60.80;101448.03;4947986;28;45567;-69
2023/09/27 00:37:38;;;;;;;;;10.33;10.33;;;;;20.06;60.71;101455.75;4955468;28;45270;-70
2023/09/27 00:40:08;;;;;;;;;9.00;9.00;;;;;20.05;61.06;101454.06;4948480;28;45429;-68
2023/09/27 00:42:33;;;;;;;;;10.33;9.00;;;;;20.01;61.06;101456.28;4939864;28;46441;-70
2023/09/27 00:44:58;;;;;;;;;11.00;9.00;;;;;20.08;61.14;101469.03;4955121;28;48399;-69
2023/09/27 00:47:24;;;;;;;;;10.33;10.33;;;;;20.07;61.21;101462.81;4947568;28;45413;-69
2023/09/27 00:49:52;;;;;;;;;12.33;10.67;;;;;20.06;61.16;101450.34;4940312;28;45304;-69
2023/09/27 00:52:18;;;;;;;;;9.33;9.33;;;;;19.97;61.06;101433.41;4950012;28;47517;-69
2023/09/27 00:54:43;;;;;;;;;8.67;7.33;;;;;19.86;60.75;101424.97;4950993;28;45434;-69
2023/09/27 00:57:08;;;;;;;;;8.00;8.00;;;;;20.04;60.90;101452.41;4942583;28;45356;-69
2023/09/27 00:59:34;;;;;;;;;8.00;8.00;;;;;20.05;60.97;101456.75;4946870;28;45276;-70
2023/09/27 01:02:00;;;;;;;;;8.33;8.33;;;;;20.06;61.13;101455.75;4954169;28;46763;-70
2023/09/27 01:04:25;;;;;;;;;9.00;6.33;;;;;20.04;60.95;101457.78;4940261;28;47970;-69
2023/09/27 01:06:51;;;;;;;;;7.00;7.00;;;;;20.02;61.16;101454.41;4944333;28;45244;-69
2023/09/27 01:09:17;;;;;;;;;8.00;8.00;;;;;19.95;61.05;101443.53;4942710;28;45628;-68
2023/09/27 01:11:46;;;;;;;;;8.33;7.33;;;;;19.99;60.91;101444.00;4955433;28;45637;-69
2023/09/27 01:14:11;;;;;;;;;10.33;9.00;;;;;19.98;61.04;101443.16;4946489;28;45565;-68
2023/09/27 01:16:36;;;;;;;;;9.00;9.00;;;;;19.98;61.09;101442.31;4949753;28;45796;-70
2023/09/27 01:19:02;;;;;;;;;7.67;7.00;;;;;19.97;60.91;101440.66;4946431;28;57993;-70
2023/09/27 01:21:28;;;;;;;;;9.33;7.33;;;;;19.96;61.15;101436.28;4955340;28;46915;-70
2023/09/27 01:23:54;;;;;;;;;7.33;7.33;;;;;19.68;61.09;101392.97;4942708;28;45243;-69
2023/09/27 01:26:21;;;;;;;;;10.00;7.00;;;;;19.94;61.15;101436.47;4943635;28;45390;-69
2023/09/27 01:28:46;;;;;;;;;10.67;10.33;;;;;19.90;61.31;101439.75;4948439;28;45519;-69
2023/09/27 01:31:12;;;;;;;;;11.33;10.33;;;;;19.66;61.51;101400.44;4949655;28;45877;-69
2023/09/27 01:33:37;;;;;;;;;7.33;7.33;;;;;19.88;61.52;101444.50;4942104;28;45331;-69
2023/09/27 01:36:03;;;;;;;;;8.00;8.00;;;;;19.83;61.90;101449.63;4954547;28;45335;-71
2023/09/27 01:38:29;;;;;;;;;9.00;8.00;;;;;19.84;61.53;101454.84;4947102;28;45528;-69
2023/09/27 01:40:55;;;;;;;;;7.33;7.33;;;;;19.83;61.70;101457.72;4954311;28;46796;-70
2023/09/27 01:43:20;;;;;;;;;11.00;7.00;;;;;19.81;61.73;101446.25;4939194;28;45375;-70
2023/09/27 01:45:46;;;;;;;;;6.00;6.00;;;;;19.79;61.81;101442.91;4947209;28;45445;-69
2023/09/27 01:48:12;;;;;;;;;7.33;6.67;;;;;19.73;61.95;101439.94;4939760;28;45514;-70
2023/09/27 01:50:37;;;;;;;;;8.00;7.00;;;;;19.66;61.54;101416.59;4939520;28;45728;-68
2023/09/27 01:53:03;;;;;;;;;8.00;7.00;;;;;19.59;61.74;101419.19;4954867;28;45550;-71
2023/09/27 01:55:29;;;;;;;;;8.33;7.00;;;;;19.74;61.51;101456.97;4942953;28;45300;-69
2023/09/27 01:57:55;;;;;;;;;5.33;5.33;;;;;19.55;61.30;101420.59;4949235;28;45482;-69
2023/09/27 02:00:21;;;;;;;;;7.33;7.33;;;;;19.65;61.93;101450.00;4947683;28;46553;-70
2023/09/27 02:02:57;;;;;;;;;8.00;7.00;;;;;19.33;61.70;101398.06;4939290;28;45470;-68
2023/09/27 02:05:24;;;;;;;;;6.67;6.67;;;;;19.65;61.79;101456.25;4946442;28;45407;-69
2023/09/27 02:07:49;;;;;;;;;7.00;6.33;;;;;19.59;61.83;101448.88;4950322;28;45465;-69
2023/09/27 02:10:15;;;;;;;;;7.00;7.00;;;;;19.62;61.98;101463.84;4942100;28;46579;-69
2023/09/27 02:12:40;;;;;;;;;8.00;7.00;;;;;19.51;61.89;101440.00;4946142;28;45251;-70
2023/09/27 02:15:08;;;;;;;;;7.67;6.00;;;;;19.62;61.87;101455.75;4938946;28;45516;-70
2023/09/27 02:17:35;;;;;;;;;8.00;8.00;;;;;19.58;62.38;101447.19;4938762;28;45222;-69
2023/09/27 02:20:12;;;;;;;;;7.67;7.67;;;;;19.59;61.64;101454.25;4939077;28;45709;-70
2023/09/27 02:22:40;;;;;;;;;5.67;5.67;;;;;19.54;61.96;101434.28;4946545;28;45454;-70
2023/09/27 02:25:09;;;;;;;;;10.67;9.67;;;;;19.56;62.14;101437.63;4950715;28;45247;-69
2023/09/27 02:27:36;;;;;;;;;7.00;7.00;;;;;19.52;62.01;101433.59;4942279;28;45477;-72
2023/09/27 02:30:03;;;;;;;;;7.00;7.00;;;;;19.50;62.23;101422.16;4948730;28;46953;-69
2023/09/27 02:32:29;;;;;;;;;9.00;6.33;;;;;19.52;62.24;101426.34;4943083;28;45550;-69
2023/09/27 02:34:54;;;;;;;;;7.67;7.00;;;;;19.50;62.37;101427.53;4939392;28;45526;-70
2023/09/27 02:37:20;;;;;;;;;7.67;7.67;;;;;19.48;62.45;101426.91;4945409;28;45266;-70
2023/09/27 02:39:45;;;;;;;;;9.33;7.67;;;;;19.44;62.60;101429.97;4953606;28;47040;-71
2023/09/27 02:42:11;;;;;;;;;10.00;9.00;;;;;19.41;62.75;101434.88;4940814;28;54371;-70
2023/09/27 02:44:37;;;;;;;;;11.33;8.00;;;;;19.41;62.53;101432.19;4943782;28;45331;-70
2023/09/27 02:47:02;;;;;;;;;5.00;5.00;;;;;19.41;62.49;101438.41;4953561;28;45312;-70
2023/09/27 02:49:28;;;;;;;;;7.67;7.00;;;;;19.36;62.83;101426.50;4938358;28;46512;-69
2023/09/27 02:51:54;;;;;;;;;9.00;8.00;;;;;19.40;62.68;101433.19;4953117;28;45325;-69
2023/09/27 02:54:19;;;;;;;;;8.67;8.33;;;;;19.28;63.11;101427.44;4946873;28;45445;-69
2023/09/27 02:56:45;;;;;;;;;10.33;8.33;;;;;19.38;63.04;101436.09;4954817;28;45498;-70
2023/09/27 02:59:11;;;;;;;;;6.67;6.67;;;;;19.38;63.20;101446.03;4959227;28;46713;-70
2023/09/27 03:01:40;;;;;;;;;8.00;8.00;;;;;19.28;63.00;101426.59;4949684;28;45500;-69
2023/09/27 03:04:10;;;;;;;;;7.67;6.00;;;;;19.21;62.96;101417.56;4950563;28;45552;-69
2023/09/27 03:06:37;;;;;;;;;8.67;8.67;;;;;19.30;63.04;101432.66;4949605;28;45525;-69
2023/09/27 03:09:03;;;;;;;;;7.33;7.00;;;;;19.26;62.89;101420.56;4941279;28;47566;-70
2023/09/27 03:11:29;;;;;;;;;7.33;7.33;;;;;19.34;63.17;101425.84;4949252;28;45362;-68
2023/09/27 03:13:55;;;;;;;;;10.33;8.67;;;;;19.28;63.06;101413.13;4946031;28;45335;-70
2023/09/27 03:16:20;;;;;;;;;10.33;9.00;;;;;19.28;63.52;101413.97;4945108;28;46832;-73
2023/09/27 03:18:46;;;;;;;;;9.00;7.67;;;;;19.30;63.43;101419.16;4948793;28;47228;-70
2023/09/27 03:21:12;;;;;;;;;11.67;9.67;;;;;19.14;63.45;101396.75;4948785;28;45489;-70
2023/09/27 03:23:37;;;;;;;;;8.00;8.00;;;;;19.04;63.63;101371.94;4942388;28;45259;-69
2023/09/27 03:26:04;;;;;;;;;11.67;11.67;;;;;19.33;63.84;101416.09;4955343;28;45236;-68
2023/09/27 03:28:29;;;;;;;;;8.67;8.67;;;;;19.32;63.55;101403.63;4948702;28;46530;-70
2023/09/27 03:30:55;;;;;;;;;13.00;13.00;;;;;19.28;64.25;101410.44;4951560;28;45317;-70
2023/09/27 03:33:21;;;;;;;;;13.00;10.67;;;;;19.23;64.50;101408.28;4946388;28;47112;-69
2023/09/27 03:35:46;;;;;;;;;11.00;11.00;;;;;19.20;64.68;101414.03;4933579;28;45517;-68
2023/09/27 03:38:12;;;;;;;;;13.00;13.00;;;;;19.06;65.08;101404.91;4916094;28;46261;-70
2023/09/27 03:40:40;;;;;;;;;13.33;12.33;;;;;19.04;65.29;101401.56;4910014;28;45277;-69
2023/09/27 03:43:05;;;;;;;;;13.67;13.67;;;;;19.01;65.28;101385.75;4902527;28;45441;-69
2023/09/27 03:45:33;;;;;;;;;13.67;11.67;;;;;18.98;65.40;101396.06;4911001;28;45437;-71
2023/09/27 03:47:58;;;;;;;;;15.00;12.00;;;;;18.92;65.74;101386.03;4902738;28;46643;-69
2023/09/27 03:50:23;;;;;;;;;11.33;10.67;;;;;18.54;65.74;101338.34;4909912;28;48936;-70
2023/09/27 03:52:49;;;;;;;;;13.33;10.67;;;;;18.87;65.69;101402.75;4910023;28;45255;-70
2023/09/27 03:55:14;;;;;;;;;12.33;11.33;;;;;18.88;65.75;101385.56;4931420;28;45363;-70
2023/09/27 03:57:40;;;;;;;;;13.00;11.00;;;;;18.80;66.13;101382.91;4910463;28;46455;-70
2023/09/27 04:00:13;;;;;;;;;11.33;10.67;;;;;18.65;66.31;101380.22;4917576;28;45423;-68
2023/09/27 04:02:39;;;;;;;;;10.33;9.33;;;;;18.49;66.47;101348.00;4901899;28;45587;-70
2023/09/27 04:05:05;;;;;;;;;12.33;9.67;;;;;18.49;66.50;101348.81;4902475;28;45447;-71
2023/09/27 04:07:30;;;;;;;;;12.67;9.33;;;;;18.64;66.91;101373.16;4911866;28;45834;-68
2023/09/27 04:09:55;;;;;;;;;12.33;11.00;;;;;18.63;66.55;101386.81;4912127;28;45489;-69
2023/09/27 04:12:21;;;;;;;;;10.33;8.33;;;;;18.62;66.54;101385.06;4912314;28;45324;-70
2023/09/27 04:14:46;;;;;;;;;13.67;12.33;;;;;18.60;66.70;101379.03;4909607;28;49657;-70
2023/09/27 04:17:11;;;;;;;;;11.00;11.00;;;;;18.38;67.11;101345.72;4915736;28;46749;-69
2023/09/27 04:19:37;;;;;;;;;13.33;12.33;;;;;18.52;67.48;101375.38;4918473;28;45506;-69
2023/09/27 04:22:02;;;;;;;;;9.67;9.33;;;;;18.52;67.40;101380.78;4907957;28;45524;-69
2023/09/27 04:24:27;;;;;;;;;13.33;11.67;;;;;18.47;67.34;101377.78;4909235;28;45515;-71
2023/09/27 04:26:53;;;;;;;;;15.00;11.33;;;;;18.48;67.29;101365.16;4917406;28;46332;-68
2023/09/27 04:29:19;;;;;;;;;12.33;11.67;;;;;18.40;67.23;101362.53;4902147;28;45385;-70
2023/09/27 04:31:45;;;;;;;;;12.67;11.33;;;;;18.46;67.38;101376.13;4910507;28;45360;-69
2023/09/27 04:34:10;;;;;;;;;10.33;10.33;;;;;18.46;67.22;101370.72;4908137;28;45673;-69
2023/09/27 04:36:35;;;;;;;;;12.00;10.67;;;;;18.40;67.24;101355.28;4939758;28;46379;-69
2023/09/27 04:39:01;;;;;;;;;12.33;12.33;;;;;18.39;67.26;101352.78;4941543;28;45779;-71
2023/09/27 04:41:26;;;;;;;;;10.67;9.67;;;;;18.42;67.54;101360.47;4937923;28;59944;-70
2023/09/27 04:43:52;;;;;;;;;14.67;12.00;;;;;18.35;67.67;101359.53;4947329;28;45610;-69
2023/09/27 04:46:18;;;;;;;;;11.33;10.33;;;;;18.30;67.73;101368.16;4930195;28;46496;-70
2023/09/27 04:48:44;;;;;;;;;13.33;12.67;;;;;18.28;67.69;101377.44;4946823;28;45501;-70
2023/09/27 04:51:09;;;;;;;;;13.00;12.00;;;;;18.27;67.67;101365.81;4948451;28;45487;-69
2023/09/27 04:53:37;;;;;;;;;10.67;10.00;;;;;18.08;67.98;101334.84;4939567;28;45310;-69
2023/09/27 04:56:07;;;;;;;;;11.33;9.00;;;;;18.29;67.67;101366.50;4946829;28;47824;-70
2023/09/27 04:58:33;;;;;;;;;15.00;12.67;;;;;18.31;67.84;101358.22;4940183;28;45479;-70
2023/09/27 05:00:58;;;;;;;;;14.33;11.33;;;;;18.25;67.66;101357.09;4945313;28;45568;-70
2023/09/27 05:03:24;;;;;;;;;13.00;12.00;;;;;18.26;67.39;101355.25;4930084;28;46958;-70
2023/09/27 05:05:49;;;;;;;;;11.67;9.00;;;;;18.16;67.70;101342.84;4954400;28;45891;-70
2023/09/27 05:08:14;;;;;;;;;13.33;12.00;;;;;18.22;67.62;101352.06;4949761;28;45422;-72
2023/09/27 05:10:40;;;;;;;;;13.33;11.33;;;;;18.15;67.80;101356.47;4946376;28;46343;-69
2023/09/27 05:13:05;;;;;;;;;16.33;14.33;;;;;17.85;68.02;101315.16;4948784;28;45484;-71
2023/09/27 05:15:33;;;;;;;;;10.67;10.67;;;;;18.11;68.26;101361.38;4955174;28;45878;-69
2023/09/27 05:17:59;;;;;;;;;11.67;11.00;;;;;18.08;67.87;101360.91;4957398;28;45337;-70
2023/09/27 05:20:24;;;;;;;;;13.00;11.67;;;;;18.08;68.43;101355.53;4944073;28;45493;-70
2023/09/27 05:22:51;;;;;;;;;12.33;10.00;;;;;18.10;68.29;101361.56;4939193;28;45716;-71
2023/09/27 05:25:17;;;;;;;;;15.00;13.67;;;;;18.15;68.32;101356.47;4944859;28;46785;-70
2023/09/27 05:27:42;;;;;;;;;14.33;13.33;;;;;18.13;68.12;101342.38;4948794;28;45530;-70
2023/09/27 05:30:08;;;;;;;;;13.67;12.67;;;;;18.17;68.20;101349.06;4939599;28;45399;-69
2023/09/27 05:32:33;;;;;;;;;16.67;12.67;;;;;18.18;67.61;101356.13;4939597;28;45209;-69
2023/09/27 05:34:58;;;;;;;;;13.33;11.00;;;;;18.22;67.79;101358.31;4950741;28;45415;-69
2023/09/27 05:37:24;;;;;;;;;12.33;10.00;;;;;18.22;67.62;101368.22;4945888;28;45758;-70
2023/09/27 05:39:49;;;;;;;;;11.00;10.67;;;;;18.20;67.62;101371.06;4939472;28;45477;-70
2023/09/27 05:42:14;;;;;;;;;13.00;13.00;;;;;17.91;67.74;101322.50;4954158;28;45541;-69
2023/09/27 05:44:40;;;;;;;;;11.00;10.33;;;;;18.17;67.78;101368.75;4943241;28;47418;-70
2023/09/27 05:47:05;;;;;;;;;11.67;10.67;;;;;18.24;67.75;101387.72;4949205;28;45652;-70
2023/09/27 05:49:31;;;;;;;;;14.00;13.33;;;;;18.16;67.42;101374.31;4942911;28;45457;-72
2023/09/27 05:51:56;;;;;;;;;14.33;13.33;;;;;18.24;67.44;101395.81;4946841;28;46003;-70
2023/09/27 05:54:22;;;;;;;;;14.00;12.67;;;;;18.24;67.22;101393.09;4945012;28;45718;-70
2023/09/27 05:56:52;;;;;;;;;21.00;17.00;;;;;18.28;67.39;101394.41;4957815;28;45344;-70
2023/09/27 05:59:18;;;;;;;;;13.00;12.00;;;;;18.31;67.08;101404.00;4953614;28;45429;-70
2023/09/27 06:01:44;;;;;;;;;12.67;12.33;;;;;18.06;66.93;101360.25;4948871;28;45506;-70
2023/09/27 06:04:10;;;;;;;;;16.00;14.33;;;;;17.91;67.11;101333.25;4953531;28;46652;-71
2023/09/27 06:06:36;;;;;;;;;14.33;11.00;;;;;18.38;67.05;101404.94;4950954;28;45562;-71
2023/09/27 06:09:05;;;;;;;;;15.33;14.00;;;;;18.43;66.76;101406.09;4949512;28;45438;-69
2023/09/27 06:11:32;;;;;;;;;11.67;11.33;;;;;18.44;66.54;101410.47;4938451;28;45326;-70
2023/09/27 06:13:58;;;;;;;;;14.00;12.33;;;;;18.41;66.66;101401.88;4944859;28;45806;-70
2023/09/27 06:16:24;;;;;;;;;9.33;9.00;;;;;18.55;66.32;101415.41;4944140;28;45499;-72
2023/09/27 06:18:49;;;;;;;;;14.00;13.00;;;;;18.57;66.31;101411.69;4942952;28;45309;-70
2023/09/27 06:21:15;;;;;;;;;13.33;10.67;;;;;18.62;66.15;101406.59;4944703;28;46997;-73
2023/09/27 06:23:40;;;;;;;;;12.33;9.67;;;;;18.68;65.90;101411.31;4953125;28;46294;-75
2023/09/27 06:26:07;;;;;;;;;12.00;11.67;;;;;18.75;65.84;101401.50;4943776;28;45263;-70
2023/09/27 06:28:33;;;;;;;;;14.00;14.00;;;;;18.75;65.73;101407.72;4946826;28;45351;-74
2023/09/27 06:30:59;;;;;;;;;15.33;14.33;;;;;18.78;65.59;101409.19;4954679;28;45450;-71
2023/09/27 06:33:24;;;;;;;;;16.33;12.67;;;;;18.86;65.30;101414.53;4948237;28;46140;-70
2023/09/27 06:35:50;;;;;;;;;15.33;15.33;;;;;18.93;64.99;101410.09;4937619;28;65648;-70
2023/09/27 06:38:19;;;;;;;;;15.67;11.67;;;;;18.70;65.10;101369.72;4946002;28;45527;-70
2023/09/27 06:40:45;;;;;;;;;14.33;13.00;;;;;18.78;64.82;101368.78;4945587;28;45449;-70
2023/09/27 06:43:10;;;;;;;;;13.67;12.67;;;;;19.09;64.49;101418.03;4938230;28;46497;-83
2023/09/27 06:45:37;;;;;;;;;22.00;19.00;;;;;18.85;64.61;101364.38;4936437;28;45261;-69
2023/09/27 06:48:03;;;;;;;;;15.33;13.33;;;;;19.29;64.12;101420.19;4946920;28;45252;-69
2023/09/27 06:50:29;;;;;;;;;13.33;12.00;;;;;19.32;63.58;101409.03;4933682;28;45675;-69
2023/09/27 06:52:56;;;;;;;;;15.00;13.67;;;;;19.36;63.16;101415.72;4947752;28;45651;-70
2023/09/27 06:55:22;;;;;;;;;12.67;11.33;;;;;19.42;63.30;101414.97;4938030;28;45440;-70
2023/09/27 06:57:50;;;;;;;;;12.67;11.67;;;;;19.51;62.94;101419.28;4922837;28;45408;-70
2023/09/27 07:00:18;;;;;;;;;18.00;17.00;;;;;19.62;62.89;101421.53;4948190;28;45548;-70
2023/09/27 07:02:47;;;;;;;;;16.67;15.33;;;;;19.73;62.74;101429.16;4924457;28;46631;-70
2023/09/27 07:05:16;;;;;;;;;16.33;15.00;;;;;19.83;62.49;101428.88;4938231;28;45289;-70
2023/09/27 07:07:42;;;;;;;;;15.67;14.33;;;;;19.96;62.03;101425.50;4929864;28;45498;-69
2023/09/27 07:10:09;;;;;;;;;14.67;13.33;;;;;20.09;61.53;101422.13;4950176;28;45469;-70
2023/09/27 07:12:36;;;;;;;;;10.67;10.67;;;;;20.31;61.15;101431.94;4951377;28;45815;-69
2023/09/27 07:15:04;;;;;;;;;14.67;12.00;;;;;20.56;60.33;101416.22;4945913;28;45473;-70
2023/09/27 07:17:31;;;;;;;;;9.00;9.00;;;;;20.93;59.44;101415.94;4942062;28;45560;-71
2023/09/27 07:19:56;;;;;;;;;15.33;13.33;;;;;21.24;58.20;101412.03;4938433;28;45509;-70
2023/09/27 07:22:23;;;;;;;;;12.67;12.00;;;;;21.31;57.94;101391.28;4946787;28;46431;-70
2023/09/27 07:24:48;;;;;;;;;16.67;15.33;;;;;21.55;57.48;101404.31;4935523;28;46045;-70
2023/09/27 07:27:14;;;;;;;;;17.67;15.33;;;;;21.72;57.01;101414.81;4936249;28;45400;-70
2023/09/27 07:29:39;;;;;;;;;10.00;10.00;;;;;22.03;56.52;101398.09;4943443;28;45521;-70
2023/09/27 07:32:05;;;;;;;;;16.00;13.67;;;;;22.92;54.30;101401.38;4928951;28;47585;-70
2023/09/27 07:34:30;;;;;;;;;11.33;11.33;;;;;23.53;53.09;101398.34;4940561;28;45859;-69
2023/09/27 07:36:56;;;;;;;;;17.33;14.67;;;;;23.78;51.69;101392.25;4937211;28;45419;-69
2023/09/27 07:39:22;;;;;;;;;13.00;11.67;;;;;24.14;50.73;101399.81;4947693;28;45513;-69
2023/09/27 07:41:49;;;;;;;;;11.67;11.00;;;;;24.23;50.47;101402.06;4951216;28;45756;-70
2023/09/27 07:44:15;;;;;;;;;11.00;9.33;;;;;24.19;50.67;101397.25;4948425;28;45407;-69
2023/09/27 07:46:41;;;;;;;;;14.33;13.67;;;;;24.27;50.49;101405.16;4948230;28;45197;-69
2023/09/27 07:49:06;;;;;;;;;17.33;16.00;;;;;24.09;51.07;101358.88;4948659;28;45271;-70
2023/09/27 07:51:32;;;;;;;;;15.67;14.67;;;;;24.54;50.53;101406.69;4947828;28;47315;-70
2023/09/27 07:53:57;;;;;;;;;10.33;10.33;;;;;24.73;50.01;101404.03;4947634;28;45243;-69
2023/09/27 07:56:25;;;;;;;;;13.33;13.33;;;;;25.03;49.31;101402.38;4948322;28;45870;-70
2023/09/27 07:58:52;;;;;;;;;15.00;15.00;;;;;25.32;48.46;101397.25;4948021;28;45590;-74
2023/09/27 08:01:20;;;;;;;;;14.00;13.00;;;;;25.42;47.54;101392.09;4947923;28;45744;-70
2023/09/27 08:03:47;;;;;;;;;16.00;16.00;;;;;25.36;47.90;101387.56;4947577;28;45707;-69
2023/09/27 08:06:13;;;;;;;;;14.00;13.00;;;;;25.23;47.60;101388.56;4955726;28;45347;-76
2023/09/27 08:08:39;;;;;;;;;15.00;13.67;;;;;25.12;48.30;101387.41;4949898;28;45340;-69
2023/09/27 08:11:04;;;;;;;;;19.00;18.00;;;;;24.99;47.76;101392.09;4952559;28;45409;-71
2023/09/27 08:13:31;;;;;;;;;18.67;16.67;;;;;24.91;48.09;101389.66;4940419;28;46179;-70
2023/09/27 08:15:57;;;;;;;;;21.33;19.33;;;;;24.54;48.07;101357.75;4958617;28;45327;-69
2023/09/27 08:18:23;;;;;;;;;18.33;18.33;;;;;24.40;48.99;101383.34;4943968;28;45240;-72
2023/09/27 08:20:49;;;;;;;;;16.00;15.33;;;;;24.31;49.52;101372.97;4942540;28;47298;-70
2023/09/27 08:23:14;;;;;;;;;18.00;17.00;;;;;24.28;49.71;101357.94;4946109;28;45553;-71
2023/09/27 08:25:40;;;;;;;;;18.00;16.00;;;;;24.52;48.94;101380.78;4939375;28;57210;-70
2023/09/27 08:28:06;;;;;;;;;16.67;14.33;;;;;24.58;48.94;101364.41;4943537;28;45568;-70
2023/09/27 08:30:31;;;;;;;;;18.00;15.67;;;;;24.75;48.74;101377.44;4944101;28;46555;-70
2023/09/27 08:32:57;;;;;;;;;20.00;16.00;;;;;24.50;48.43;101364.69;4948611;28;45684;-69
2023/09/27 08:35:23;;;;;;;;;22.00;18.00;;;;;24.33;48.54;101365.44;4952202;28;45449;-70
2023/09/27 08:37:48;;;;;;;;;18.33;17.00;;;;;24.20;49.71;101352.72;4950535;28;45426;-71
2023/09/27 08:40:14;;;;;;;;;24.00;21.00;;;;;24.13;49.44;101360.09;4947341;28;52014;-69
2023/09/27 08:42:41;;;;;;;;;22.67;18.67;;;;;24.18;49.30;101346.69;4944947;28;45396;-69
2023/09/27 08:45:28;;;;;;;;;15.67;15.67;;;;;24.33;49.23;101344.53;4941986;28;45501;-70
2023/09/27 08:47:56;;;;;;;;;14.67;14.67;;;;;24.56;48.89;101336.59;4945984;28;45476;-69
2023/09/27 08:50:24;;;;;;;;;14.33;12.67;;;;;24.86;47.93;101338.66;4940888;28;47623;-69
2023/09/27 08:52:51;;;;;;;;;16.00;14.33;;;;;24.98;47.06;101312.38;4943730;28;45272;-69
2023/09/27 08:55:18;;;;;;;;;13.67;13.67;;;;;25.08;47.21;101320.88;4949044;28;45503;-69
2023/09/27 08:57:48;;;;;;;;;18.00;17.00;;;;;25.04;46.67;101308.81;4939313;28;45273;-70
2023/09/27 09:00:16;;;;;;;;;14.33;13.00;;;;;25.09;46.62;101311.66;4946356;28;47755;-70
2023/09/27 09:02:48;;;;;;;;;14.00;12.33;;;;;24.96;47.04;101300.88;4955467;28;45547;-69
2023/09/27 09:05:15;;;;;;;;;13.67;12.33;;;;;24.92;46.85;101299.69;4946654;28;45427;-68
2023/09/27 09:07:41;;;;;;;;;16.33;13.67;;;;;24.72;47.38;101255.53;4940466;28;45450;-70
2023/09/27 09:10:11;;;;;;;;;14.67;12.67;;;;;25.03;46.51;101293.53;4952703;28;47614;-69
2023/09/27 09:12:38;;;;;;;;;12.00;11.33;;;;;24.87;47.12;101286.75;4947033;28;45568;-70
2023/09/27 09:15:05;;;;;;;;;13.67;13.33;;;;;24.90;46.75;101306.41;4949551;28;45462;-70
2023/09/27 09:17:34;;;;;;;;;12.67;12.67;;;;;24.89;47.15;101305.56;4943302;28;45873;-70
2023/09/27 09:20:17;;;;;;;;;12.67;10.33;;;;;24.73;46.61;101266.19;4956799;28;47052;-70
2023/09/27 09:22:44;;;;;;;;;11.33;10.33;;;;;24.93;46.84;101290.47;4942113;28;45616;-70
2023/09/27 09:25:09;;;;;;;;;10.33;10.33;;;;;25.07;46.36;101300.19;4947219;28;45297;-70
2023/09/27 09:27:35;;;;;;;;;10.33;10.33;;;;;25.21;46.02;101267.34;4922027;28;45476;-78
2023/09/27 09:30:02;;;;;;;;;8.00;6.67;;;;;25.80;45.24;101296.56;4930356;28;48127;-76
2023/09/27 09:32:29;;;;;;;;;13.00;9.00;;;;;26.37;44.13;101289.63;4941291;28;45272;-71
2023/09/27 09:34:55;;;;;;;;;11.00;10.00;;;;;26.86;42.88;101278.50;4950011;28;45601;-76
2023/09/27 09:37:27;;;;;;;;;13.67;13.00;;;;;27.58;41.55;101271.56;4947064;28;45493;-70
2023/09/27 09:40:05;;;;;;;;;13.00;10.00;;;;;28.33;40.87;101278.69;4947000;28;46501;-70
2023/09/27 09:42:32;;;;;;;;;13.00;11.00;;;;;28.82;39.75;101280.78;4953476;28;45348;-69
2023/09/27 09:45:10;;;;;;;;;8.67;8.67;;;;;29.16;38.38;101268.72;4939095;28;45192;-69
2023/09/27 09:47:36;;;;;;;;;13.00;11.00;;;;;29.22;38.72;101281.38;4941612;28;45499;-69
2023/09/27 09:50:06;;;;;;;;;10.67;9.00;;;;;29.16;38.47;101296.09;4949105;28;47471;-69
2023/09/27 09:52:35;;;;;;;;;8.00;8.00;;;;;28.78;37.41;101264.06;4954946;28;45583;-69
2023/09/27 09:55:03;;;;;;;;;11.67;9.67;;;;;28.60;39.00;101281.56;4939200;28;45470;-69
2023/09/27 09:57:43;;;;;;;;;9.33;8.00;;;;;28.39;39.25;101271.41;4953925;28;45517;-70
2023/09/27 10:00:25;;;;;;;;;14.33;12.00;;;;;28.17;40.00;101263.91;4945886;28;46816;-70
2023/09/27 10:03:01;;;;;;;;;8.50;8.50;;;;;27.86;39.73;101262.56;4948382;28;45389;-68
2023/09/27 10:05:37;;;;;;;;;9.67;9.67;;;;;27.51;40.72;101257.25;4949777;28;45484;-78
2023/09/27 10:08:04;;;;;;;;;11.00;9.33;;;;;27.15;41.29;101250.22;4938679;28;45531;-69
2023/09/27 10:10:30;;;;;;;;;10.33;9.00;;;;;26.93;42.25;101258.19;4945454;28;45725;-69
2023/09/27 10:12:57;;;;;;;;;8.00;8.00;;;;;26.62;42.80;101239.47;4949343;28;45291;-71
2023/09/27 10:15:24;;;;;;;;;9.33;9.33;;;;;26.30;43.19;101225.34;4944566;28;45381;-69
2023/09/27 10:17:50;;;;;;;;;9.00;8.00;;;;;26.07;43.86;101227.00;4939909;28;45469;-69
2023/09/27 10:20:20;;;;;;;;;8.67;7.00;;;;;25.69;44.60;101191.97;4945419;28;47697;-70
2023/09/27 10:22:46;;;;;;;;;10.33;9.33;;;;;25.60;45.05;101215.09;4945025;28;45486;-69
2023/09/27 10:25:24;;;;;;;;;6.67;6.67;;;;;25.45;45.67;101222.88;4948319;28;45505;-69
2023/09/27 10:28:01;;;;;;;;;9.00;9.00;;;;;25.29;45.63;101213.47;4948382;28;45696;-70
2023/09/27 10:30:48;;;;;;;;;9.67;8.33;;;;;24.84;46.23;101164.00;4930227;28;46157;-70
2023/09/27 10:33:16;;;;;;;;;8.67;7.67;;;;;24.99;46.13;101215.28;4947583;28;45585;-70
2023/09/27 10:35:46;;;;;;;;;8.33;8.33;;;;;24.91;46.80;101226.47;4944924;28;45348;-70
2023/09/27 10:38:12;;;;;;;;;8.00;8.00;;;;;24.81;47.35;101216.94;4942215;28;45488;-72
2023/09/27 10:40:45;;;;;;;;;12.00;10.33;;;;;24.76;47.23;101218.66;4951614;28;47061;-70
2023/09/27 10:43:38;;;;;;;;;9.00;6.33;;;;;24.67;47.41;101215.44;4952166;28;45624;-69
2023/09/27 10:46:04;;;;;;;;;9.67;7.67;;;;;24.21;47.79;101158.78;4947951;28;45530;-68
2023/09/27 10:48:30;;;;;;;;;14.00;10.67;;;;;24.41;48.40;101213.78;4949911;28;45429;-69
2023/09/27 10:50:56;;;;;;;;;6.00;5.00;;;;;24.39;48.05;101206.91;4937760;28;45723;-70
2023/09/27 10:53:22;;;;;;;;;11.33;10.33;;;;;24.33;48.55;101211.38;4947410;28;45350;-70
2023/09/27 10:55:47;;;;;;;;;11.33;10.00;;;;;24.35;48.49;101206.53;4937891;28;45505;-70
2023/09/27 10:58:17;;;;;;;;;13.00;10.67;;;;;24.48;48.35;101217.28;4939576;28;45529;-69
2023/09/27 11:00:53;;;;;;;;;8.33;8.00;;;;;24.61;48.23;101210.03;4947779;28;46028;-71
2023/09/27 11:03:19;;;;;;;;;7.33;7.33;;;;;24.38;47.43;101153.63;4945797;28;45482;-69
2023/09/27 11:05:45;;;;;;;;;8.67;8.67;;;;;24.87;46.70;101217.94;4941766;28;45539;-72
2023/09/27 11:08:10;;;;;;;;;9.00;9.00;;;;;25.00;46.27;101220.50;4946722;28;45422;-70
2023/09/27 11:10:36;;;;;;;;;7.67;6.00;;;;;25.09;46.59;101200.13;4947237;28;45595;-69
2023/09/27 11:13:10;;;;;;;;;8.67;7.33;;;;;25.20;45.63;101206.66;4957813;28;45417;-70